Time;durP1;ratioP1;P1;durP2;ratioP2;P2;SDS_P1;SDS_P2;PMS_P1;PMS_P2;Temp;Humidity;BMP_temperature;BMP_pressure;BME280_temperature;BME280_humidity;BME280_pressure;Samples;Min_cycle;Max_cycle;Signal;HPM_P1;HPM_P2
2021/06/01 00:01:55;;;;;;;12.95;8.98;;;;;;;-150.07;48.25;62282.31;4992586;28;20027;-79
2021/06/01 00:04:22;;;;;;;9.70;8.55;;;;;;;-150.07;47.40;62981.41;4992593;28;20028;-81
2021/06/01 00:06:49;;;;;;;16.17;11.40;;;;;;;-150.07;47.30;62554.41;4990347;28;20034;-81
2021/06/01 00:09:22;;;;;;;16.85;12.52;;;;;;;-150.07;46.92;62571.13;5005279;28;20022;-81
2021/06/01 00:11:49;;;;;;;16.95;12.93;;;;;;;-150.07;46.94;62602.53;5011706;28;20052;-81
2021/06/01 00:14:17;;;;;;;22.63;17.25;;;;;;;-150.07;46.45;62412.06;5012076;28;20022;-81
2021/06/01 00:16:46;;;;;;;22.77;16.80;;;;;;;-150.07;46.29;62688.34;5011974;28;20478;-80
2021/06/01 00:19:13;;;;;;;27.50;19.05;;;;;;;-150.07;46.15;63437.78;5012027;28;20029;-81
2021/06/01 00:21:41;;;;;;;26.02;17.20;;;;;;;-150.07;45.72;62828.59;5011693;28;20084;-81
2021/06/01 00:24:08;;;;;;;25.40;18.25;;;;;;;-150.07;45.41;63571.78;5011706;28;20026;-81
2021/06/01 00:26:37;;;;;;;24.35;17.98;;;;;;;-150.07;45.34;62947.91;5011630;28;20026;-81
2021/06/01 00:29:06;;;;;;;19.33;16.25;;;;;;;-150.07;45.33;63768.56;5011540;28;20029;-81
2021/06/01 00:31:34;;;;;;;24.63;15.60;;;;;;;-150.07;45.05;63014.91;5012076;28;20037;-81
2021/06/01 00:34:02;;;;;;;16.15;13.18;;;;;;;-150.07;45.03;62950.00;5011357;28;20112;-81
2021/06/01 00:36:29;;;;;;;19.83;12.88;;;;;;;-150.07;44.79;62996.06;5012000;28;20026;-81
2021/06/01 00:38:56;;;;;;;16.13;12.68;;;;;;;-150.07;45.34;62966.75;5011490;28;20788;-82
2021/06/01 00:41:23;;;;;;;26.10;15.05;;;;;;;-150.07;45.85;62851.63;5011159;28;20033;-82
2021/06/01 00:43:50;;;;;;;24.25;13.80;;;;;;;-150.07;45.89;63144.69;5011349;28;20026;-81
2021/06/01 00:46:19;;;;;;;21.02;16.50;;;;;;;-150.07;45.97;62826.50;5011204;28;20042;-81
2021/06/01 00:48:46;;;;;;;22.92;14.70;;;;;;;-150.07;47.16;62937.44;5011691;28;20022;-81
2021/06/01 00:51:13;;;;;;;24.05;15.68;;;;;;;-150.07;46.40;62993.97;5011645;28;20041;-81
2021/06/01 00:53:40;;;;;;;27.30;15.65;;;;;;;-150.07;46.18;63035.84;5011464;28;20105;-81
2021/06/01 00:56:07;;;;;;;25.77;16.83;;;;;;;-150.07;45.83;63098.63;5011380;28;20426;-81
2021/06/01 00:58:35;;;;;;;21.52;16.85;;;;;;;-150.07;45.41;63155.16;5010293;28;20033;-81
2021/06/01 01:03:38;;;;;;;23.73;15.45;;;;;;;-150.07;45.88;63113.28;5012406;28;20026;-81
2021/06/01 01:06:42;;;;;;;21.17;16.08;;;;;;;-150.07;45.20;63226.34;5011495;28;20053;-82
2021/06/01 01:09:16;;;;;;;18.05;13.85;;;;;;;-150.07;44.39;63433.59;5013158;28;20060;-81
2021/06/01 01:12:08;;;;;;;18.42;13.30;;;;;;;-150.07;44.84;63462.91;5013195;28;20037;-80
2021/06/01 01:15:01;;;;;;;16.30;12.82;;;;;;;-150.07;45.08;63400.09;5011011;28;20018;-82
2021/06/01 01:17:42;;;;;;;21.15;14.82;;;;;;;-150.07;44.53;63488.03;5006569;28;20042;-80
2021/06/01 01:20:12;;;;;;;26.15;14.05;;;;;;;-150.07;44.32;63578.06;5010142;28;20033;-80
2021/06/01 01:22:42;;;;;;;17.42;13.60;;;;;;;-150.07;43.50;63871.16;5010773;28;20033;-80
2021/06/01 01:25:29;;;;;;;17.90;13.38;;;;;;;-150.07;43.69;63622.03;5011323;28;20026;-81
2021/06/01 01:28:34;;;;;;;20.48;14.40;;;;;;;-150.07;43.15;64091.03;5011440;28;20390;-80
2021/06/01 01:31:11;;;;;;;17.83;13.88;;;;;;;-150.07;43.85;64042.88;5011366;28;20438;-80
2021/06/01 01:33:40;;;;;;;22.27;15.80;;;;;;;-150.07;43.76;64166.41;5011030;28;20525;-81
2021/06/01 01:36:10;;;;;;;25.40;16.75;;;;;;;-150.07;42.76;63647.13;5009448;28;20491;-81
2021/06/01 01:38:41;;;;;;;18.40;16.45;;;;;;;-150.07;44.19;63496.41;5010405;28;20045;-81
2021/06/01 01:41:15;;;;;;;23.27;17.17;;;;;;;-150.07;44.14;63521.53;5010531;28;20037;-81
2021/06/01 01:43:44;;;;;;;23.92;17.08;;;;;;;-150.07;43.98;63475.47;5009431;28;20046;-81
2021/06/01 01:46:27;;;;;;;20.45;17.05;;;;;;;-150.07;44.69;63877.44;5011849;28;20037;-80
2021/06/01 01:49:01;;;;;;;24.05;21.15;;;;;;;-150.07;44.96;63469.19;5011438;28;20490;-80
2021/06/01 01:51:35;;;;;;;25.63;20.95;;;;;;;-150.07;45.26;63389.63;5011285;28;20076;-81
2021/06/01 01:54:08;;;;;;;29.92;22.58;;;;;;;-150.07;45.31;63268.19;5012183;28;20146;-83
2021/06/01 01:56:39;;;;;;;27.92;22.98;;;;;;;-150.07;46.45;63270.28;5011394;28;20025;-82
2021/06/01 01:59:09;;;;;;;31.00;22.80;;;;;;;-150.07;46.61;63194.94;5010530;28;20495;-82
2021/06/01 02:01:38;;;;;;;28.75;23.10;;;;;;;-150.07;46.30;63261.94;5010646;28;20025;-81
2021/06/01 02:04:06;;;;;;;28.17;21.92;;;;;;;-150.07;45.97;63362.41;5015109;28;20777;-81
2021/06/01 02:06:34;;;;;;;29.55;21.30;;;;;;;-150.07;45.94;63517.34;5023918;28;20022;-81
2021/06/01 02:09:01;;;;;;;31.55;20.75;;;;;;;-150.07;45.56;63628.28;5020280;28;20029;-82
2021/06/01 02:11:28;;;;;;;29.77;20.67;;;;;;;-150.07;45.08;63793.69;5019625;28;20036;-81
2021/06/01 02:14:01;;;;;;;34.92;26.40;;;;;;;-150.07;44.28;64233.41;5023258;28;20045;-80
2021/06/01 02:16:29;;;;;;;32.25;23.65;;;;;;;-150.07;44.39;64505.63;4995516;28;20088;-80
2021/06/01 02:18:56;;;;;;;44.85;23.30;;;;;;;-150.07;44.83;63806.25;4998290;28;20026;-80
2021/06/01 02:24:33;;;;;;;39.78;31.08;;;;;;;-150.07;47.62;63268.19;5002932;28;20034;-81
2021/06/01 02:27:20;;;;;;;36.80;32.15;;;;;;;-150.07;47.54;63379.16;5014489;28;20092;-80
2021/06/01 02:29:50;;;;;;;35.75;31.48;;;;;;;-150.07;47.23;63446.16;5012734;28;20430;-80
2021/06/01 02:32:20;;;;;;;37.45;29.70;;;;;;;-150.07;47.37;63454.53;5013975;28;20064;-79
2021/06/01 02:34:50;;;;;;;39.45;29.35;;;;;;;-150.07;47.19;63471.28;5014171;28;20406;-80
2021/06/01 02:37:18;;;;;;;37.45;28.23;;;;;;;-150.07;46.53;63642.94;5013837;28;20574;-80
2021/06/01 02:39:48;;;;;;;35.53;29.65;;;;;;;-150.07;47.64;63406.38;5013846;28;20560;-81
2021/06/01 02:42:14;;;;;;;;;;;;;;;-150.07;46.95;63555.03;5012634;28;20037;-80
2021/06/01 02:44:41;;;;;;;37.88;31.05;;;;;;;-150.07;47.31;63571.78;5012370;28;19917;-80
2021/06/01 02:47:08;;;;;;;45.63;36.75;;;;;;;-150.07;47.03;63684.81;5013931;28;20049;-80
2021/06/01 02:49:35;;;;;;;55.55;45.50;;;;;;;-150.07;48.77;63402.19;5014650;28;20040;-79
2021/06/01 02:52:03;;;;;;;72.20;53.25;;;;;;;-150.07;48.92;63446.16;5014296;28;20033;-81
2021/06/01 02:54:30;;;;;;;69.40;52.00;;;;;;;-150.07;49.72;63414.75;5013741;28;20486;-81
2021/06/01 02:56:57;;;;;;;61.10;51.55;;;;;;;-150.07;50.31;63370.78;5015250;28;20491;-81
2021/06/01 02:59:25;;;;;;;67.78;53.78;;;;;;;-150.07;50.69;63389.63;5013695;28;20510;-81
2021/06/01 03:01:52;;;;;;;73.63;54.40;;;;;;;-150.07;50.71;63366.59;5013263;28;20041;-81
2021/06/01 03:04:37;;;;;;;70.68;53.08;;;;;;;-150.07;50.45;63310.06;5013117;28;20037;-81
2021/06/01 03:07:04;;;;;;;66.60;54.70;;;;;;;-150.07;50.72;63163.53;5013428;28;20060;-78
2021/06/01 03:09:31;;;;;;;61.05;48.70;;;;;;;-150.07;49.53;63506.88;5013399;28;20033;-80
2021/06/01 03:12:02;;;;;;;74.75;51.95;;;;;;;-150.07;49.09;63425.22;5013295;28;20033;-80
2021/06/01 03:14:29;;;;;;;62.45;48.35;;;;;;;-150.07;48.13;63766.47;5002685;28;20451;-80
2021/06/01 03:16:56;;;;;;;63.67;51.25;;;;;;;-150.07;48.33;63642.94;5010445;28;20032;-79
2021/06/01 03:19:22;;;;;;;70.43;51.90;;;;;;;-150.07;47.83;63747.63;5013714;28;20494;-80
2021/06/01 03:21:49;;;;;;;61.33;50.55;;;;;;;-150.07;48.13;63776.94;4998348;28;20073;-80
2021/06/01 03:24:16;;;;;;;68.38;51.97;;;;;;;-150.07;47.80;63825.09;4993628;28;20456;-80
2021/06/01 03:26:43;;;;;;;59.35;49.85;;;;;;;-150.07;47.01;63802.06;4993700;28;20859;-79
2021/06/01 03:29:10;;;;;;;58.38;51.65;;;;;;;-150.07;47.56;63462.91;5007147;28;20479;-80
2021/06/01 03:31:37;;;;;;;70.68;53.38;;;;;;;-150.07;47.22;63797.88;4998501;28;20026;-80
2021/06/01 03:34:03;;;;;;;58.58;51.97;;;;;;;-150.07;47.27;63622.03;5013150;28;20022;-80
2021/06/01 03:36:30;;;;;;;61.65;51.97;;;;;;;-150.07;47.29;63766.47;5012793;28;20029;-80
2021/06/01 03:38:57;;;;;;;53.17;47.42;;;;;;;-150.07;46.40;63542.47;5012784;28;20041;-80
2021/06/01 03:41:24;;;;;;;52.60;44.67;;;;;;;-150.07;45.31;63860.69;5012728;28;20669;-81
2021/06/01 03:43:51;;;;;;;63.10;47.22;;;;;;;-150.07;45.46;64068.00;5012907;28;20072;-80
2021/06/01 03:46:18;;;;;;;49.58;41.40;;;;;;;-150.07;44.18;64034.50;5013107;28;20504;-80
2021/06/01 03:48:45;;;;;;;49.58;40.17;;;;;;;-150.07;44.29;63701.56;5012496;28;20030;-81
2021/06/01 03:51:12;;;;;;;47.10;37.45;;;;;;;-150.07;44.51;63802.06;5013425;28;20509;-80
2021/06/01 03:53:39;;;;;;;49.40;39.05;;;;;;;-150.07;43.78;63791.59;5012466;28;20049;-80
2021/06/01 03:56:06;;;;;;;49.92;39.72;;;;;;;-150.07;44.52;63772.75;5012631;28;20487;-80
2021/06/01 03:58:32;;;;;;;41.35;36.83;;;;;;;-150.07;44.55;63858.59;5012402;28;20036;-81
2021/06/01 04:00:59;;;;;;;40.35;35.97;;;;;;;-150.07;44.62;64055.44;5012564;28;20417;-81
2021/06/01 04:03:26;;;;;;;50.78;44.95;;;;;;;-150.07;45.58;63760.19;5010945;28;20331;-81
2021/06/01 04:05:53;;;;;;;63.63;47.88;;;;;;;-150.07;46.03;63745.53;5012112;28;20088;-82
2021/06/01 04:08:20;;;;;;;57.50;48.80;;;;;;;-150.07;46.53;63774.84;5012369;28;20062;-81
2021/06/01 04:10:47;;;;;;;55.28;46.33;;;;;;;-150.07;45.45;63515.25;4998449;28;20061;-81
2021/06/01 04:13:13;;;;;;;58.22;47.17;;;;;;;-150.07;46.15;63724.59;5012233;28;20040;-80
2021/06/01 04:15:40;;;;;;;51.55;46.03;;;;;;;-150.07;45.52;63762.28;5013090;28;20036;-79
2021/06/01 04:18:07;;;;;;;50.92;41.15;;;;;;;-150.07;45.32;63992.63;5012204;28;20026;-80
2021/06/01 04:20:34;;;;;;;47.20;36.42;;;;;;;-150.07;44.89;63887.91;5011358;28;20026;-80
2021/06/01 04:23:01;;;;;;;50.92;45.08;;;;;;;-150.07;46.12;64266.91;5012024;28;20124;-81
2021/06/01 04:25:28;;;;;;;46.42;35.80;;;;;;;-150.07;44.99;63875.34;5011884;28;20026;-81
2021/06/01 04:27:55;;;;;;;46.38;40.55;;;;;;;-150.07;46.07;63642.94;5012578;28;20113;-82
2021/06/01 04:30:22;;;;;;;57.70;46.40;;;;;;;-150.07;45.89;63655.50;5011836;28;20030;-81
2021/06/01 04:32:51;;;;;;;54.13;48.20;;;;;;;-150.07;46.17;63774.84;5013933;28;20014;-81
2021/06/01 04:35:18;;;;;;;50.10;41.83;;;;;;;-150.07;45.97;64457.47;5011278;28;20026;-82
2021/06/01 04:37:45;;;;;;;43.92;36.47;;;;;;;-150.07;45.60;63768.56;5000036;28;20037;-82
2021/06/01 04:40:14;;;;;;;54.67;41.40;;;;;;;-150.07;46.21;63561.31;5011747;28;21456;-81
2021/06/01 04:42:45;;;;;;;59.03;48.00;;;;;;;-150.07;46.28;63527.81;5013589;28;20033;-82
2021/06/01 04:45:16;;;;;;;43.42;38.30;;;;;;;-150.07;44.46;63726.69;5031961;28;20058;-82
2021/06/01 04:47:43;;;;;;;29.83;26.55;;;;;;;-150.07;42.79;63630.38;5032266;28;20092;-84
2021/06/01 04:50:11;;;;;;;35.92;27.95;;;;;;;-150.07;43.12;63655.50;5027804;28;20552;-81
2021/06/01 04:52:40;;;;;;;33.72;30.00;;;;;;;-150.07;43.86;63550.84;5015286;28;20058;-81
2021/06/01 04:55:10;;;;;;;31.95;28.38;;;;;;;-150.07;43.27;63607.38;5012708;28;20026;-79
2021/06/01 04:57:40;;;;;;;32.13;25.00;;;;;;;-150.07;43.46;63663.88;5006679;28;20022;-81
2021/06/01 05:00:10;;;;;;;34.17;23.60;;;;;;;-150.07;42.63;63479.66;4997283;28;20030;-82
2021/06/01 05:02:37;;;;;;;23.35;20.45;;;;;;;-150.07;41.34;63697.38;4991705;28;20030;-81
2021/06/01 05:05:06;;;;;;;30.20;21.48;;;;;;;-150.07;42.05;63764.38;5006221;28;20034;-79
2021/06/01 05:07:33;;;;;;;22.85;20.48;;;;;;;-150.07;41.67;64176.88;5012104;28;20387;-81
2021/06/01 05:10:01;;;;;;;17.85;15.95;;;;;;;-150.07;41.51;63628.28;5012640;28;20033;-81
2021/06/01 05:12:31;;;;;;;24.02;18.27;;;;;;;-150.07;43.06;63217.97;5011646;28;20032;-81
2021/06/01 05:14:58;;;;;;;19.38;13.30;;;;;;;-150.07;41.74;63358.22;5011210;28;20160;-81
2021/06/01 05:17:26;;;;;;;14.35;12.45;;;;;;;-150.07;42.65;63174.00;5011348;28;20053;-81
2021/06/01 05:19:52;;;;;;;26.08;15.00;;;;;;;-150.07;42.61;63492.22;5011788;28;20467;-82
2021/06/01 05:22:19;;;;;;;15.27;12.57;;;;;;;-150.07;42.35;63458.72;5013568;28;20037;-81
2021/06/01 05:24:47;;;;;;;14.27;11.38;;;;;;;-150.07;41.93;63412.66;5012115;28;20030;-82
2021/06/01 05:27:14;;;;;;;22.75;12.98;;;;;;;-150.07;41.92;63555.03;5009107;28;20115;-81
2021/06/01 05:29:45;;;;;;;15.52;11.07;;;;;;;-150.07;41.24;63701.56;5000472;28;20080;-79
2021/06/01 05:34:47;;;;;;;13.02;9.80;;;;;;;-150.07;40.65;63747.63;5011429;28;20033;-79
2021/06/01 05:37:14;;;;;;;12.30;11.02;;;;;;;-150.07;40.03;63567.59;5011195;28;20034;-81
2021/06/01 05:39:44;;;;;;;20.25;9.35;;;;;;;-150.07;40.03;63726.69;5006300;28;20053;-81
2021/06/01 05:42:11;;;;;;;15.07;10.70;;;;;;;-150.07;39.94;63818.81;5010766;28;20034;-79
2021/06/01 05:44:38;;;;;;;12.82;10.38;;;;;;;-150.07;39.72;63632.47;5007176;28;20563;-80
2021/06/01 05:47:05;;;;;;;15.68;9.80;;;;;;;-150.07;39.02;64227.13;4991491;28;20026;-81
2021/06/01 05:49:32;;;;;;;12.60;8.75;;;;;;;-150.07;39.48;63651.31;4991691;28;20034;-80
2021/06/01 05:52:01;;;;;;;15.90;10.80;;;;;;;-150.07;38.65;63940.25;4999741;28;20037;-78
2021/06/01 05:54:31;;;;;;;12.32;8.95;;;;;;;-150.07;38.43;63513.16;5013116;28;20482;-77
2021/06/01 05:56:58;;;;;;;;;;;;;;;-150.07;38.19;63860.69;5014751;28;20034;-80
2021/06/01 05:59:24;;;;;;;12.10;7.72;;;;;;;-150.07;38.29;63657.59;5014048;28;19905;-84
2021/06/01 06:01:51;;;;;;;14.10;9.02;;;;;;;-150.07;38.53;64658.50;5015773;28;20084;-79
2021/06/01 06:04:18;;;;;;;12.80;8.60;;;;;;;-150.07;38.67;63963.31;5016364;28;20029;-79
2021/06/01 06:06:46;;;;;;;13.60;8.77;;;;;;;-150.07;38.94;64021.94;5002021;28;20026;-78
2021/06/01 06:09:13;;;;;;;13.45;9.48;;;;;;;-150.07;38.81;64095.22;5017409;28;20030;-79
2021/06/01 06:11:40;;;;;;;14.80;9.30;;;;;;;-150.07;38.35;64099.41;5026459;28;20089;-81
2021/06/01 06:14:07;;;;;;;28.38;12.32;;;;;;;-150.07;39.06;63908.84;5014492;28;20532;-79
2021/06/01 06:16:56;;;;;;;17.45;11.65;;;;;;;-150.07;39.49;63860.69;4999401;28;20030;-78
2021/06/01 06:19:23;;;;;;;17.38;9.77;;;;;;;-150.07;39.65;63961.22;4994772;28;20057;-78
2021/06/01 06:21:50;;;;;;;11.32;10.23;;;;;;;-150.07;40.04;63776.94;4994996;28;20072;-80
2021/06/01 06:24:17;;;;;;;15.55;8.77;;;;;;;-150.07;40.20;63349.84;4995069;28;20023;-78
2021/06/01 06:26:45;;;;;;;15.55;9.38;;;;;;;-150.07;39.91;63789.50;4995322;28;20027;-79
2021/06/01 06:29:12;;;;;;;12.38;9.35;;;;;;;-150.07;40.52;63605.28;4995850;28;20506;-78
2021/06/01 06:31:39;;;;;;;15.27;11.02;;;;;;;-150.07;41.58;63408.47;4995325;28;20041;-80
2021/06/01 06:34:06;;;;;;;18.40;11.40;;;;;;;-150.07;41.81;63450.34;5008671;28;20025;-80
2021/06/01 06:36:33;;;;;;;19.42;11.70;;;;;;;-150.07;41.67;63387.53;5014006;28;20372;-81
2021/06/01 06:39:05;;;;;;;19.17;11.52;;;;;;;-150.07;41.77;63395.91;5013005;28;20056;-80
2021/06/01 06:41:31;;;;;;;24.25;12.48;;;;;;;-150.07;42.57;63274.47;5014101;28;20033;-81
2021/06/01 06:43:58;;;;;;;21.60;14.70;;;;;;;-150.07;43.85;63098.63;5012380;28;20392;-85
2021/06/01 06:46:27;;;;;;;19.52;12.27;;;;;;;-150.07;44.26;62558.56;5012564;28;20037;-80
2021/06/01 06:48:55;;;;;;;22.00;12.70;;;;;;;-150.07;44.32;62880.94;5014230;28;20033;-78
2021/06/01 06:51:23;;;;;;;20.65;14.27;;;;;;;-150.07;44.36;63230.53;5012694;28;20537;-80
2021/06/01 06:53:55;;;;;;;23.10;14.88;;;;;;;-150.07;44.99;63249.38;5013940;28;20721;-81
2021/06/01 06:56:30;;;;;;;22.80;15.80;;;;;;;-150.07;46.56;63178.19;5013903;28;20153;-80
2021/06/01 06:58:58;;;;;;;22.92;14.13;;;;;;;-150.07;46.12;63255.66;5014633;28;20026;-80
2021/06/01 07:01:27;;;;;;;21.48;15.15;;;;;;;-150.07;45.95;63207.50;5012792;28;20026;-79
2021/06/01 07:03:55;;;;;;;26.73;15.73;;;;;;;-150.07;46.12;63159.34;5013121;28;20142;-83
2021/06/01 07:06:23;;;;;;;29.48;16.52;;;;;;;-150.07;45.97;63316.34;5015564;28;20026;-81
2021/06/01 07:08:51;;;;;;;25.80;17.33;;;;;;;-150.07;44.02;63559.22;5016322;28;20030;-80
2021/06/01 07:11:18;;;;;;;25.42;14.38;;;;;;;-150.07;44.17;64199.91;5014671;28;20045;-79
2021/06/01 07:13:48;;;;;;;15.32;13.80;;;;;;;-150.07;43.91;63550.84;5014419;28;20033;-81
2021/06/01 07:16:16;;;;;;;22.80;13.27;;;;;;;-150.07;43.63;63421.03;5013169;28;20357;-80
2021/06/01 07:18:43;;;;;;;24.60;13.80;;;;;;;-150.07;44.29;64283.66;5013967;28;20037;-82
2021/06/01 07:21:14;;;;;;;15.73;12.82;;;;;;;-150.07;43.63;63691.09;5014686;28;20121;-80
2021/06/01 07:23:41;;;;;;;23.70;14.02;;;;;;;-150.07;43.54;63534.09;5013648;28;20026;-80
2021/06/01 07:26:10;;;;;;;19.58;14.35;;;;;;;-150.07;44.18;63506.88;5010668;28;20096;-80
2021/06/01 07:28:38;;;;;;;22.63;14.95;;;;;;;-150.07;43.73;63243.09;5005958;28;20026;-80
2021/06/01 07:31:06;;;;;;;20.67;13.63;;;;;;;-150.07;43.63;63596.91;5014173;28;20041;-81
2021/06/01 07:33:34;;;;;;;24.23;15.00;;;;;;;-150.07;43.23;63391.72;5013188;28;20030;-81
2021/06/01 07:36:03;;;;;;;16.83;13.38;;;;;;;-150.07;43.34;63176.09;5012314;28;20033;-81
2021/06/01 07:38:30;;;;;;;15.93;14.32;;;;;;;-150.07;43.17;63927.69;5011677;28;20061;-79
2021/06/01 07:40:57;;;;;;;19.92;12.70;;;;;;;-150.07;43.55;63454.53;5010863;28;20026;-80
2021/06/01 07:43:24;;;;;;;19.70;11.93;;;;;;;-150.07;43.28;63519.44;5002881;28;20034;-80
2021/06/01 07:45:51;;;;;;;16.90;12.55;;;;;;;-150.07;43.44;63211.69;5019255;28;20376;-81
2021/06/01 07:48:18;;;;;;;15.07;11.48;;;;;;;-150.07;43.36;63360.31;5015391;28;20113;-80
2021/06/01 07:50:45;;;;;;;13.55;10.80;;;;;;;-150.07;42.84;63940.25;5013133;28;20056;-79
2021/06/01 07:53:12;;;;;;;20.92;13.63;;;;;;;-150.07;42.39;63521.53;5013242;28;20022;-79
2021/06/01 07:55:39;;;;;;;19.90;11.65;;;;;;;-150.07;42.81;63504.78;5013768;28;20038;-80
2021/06/01 07:58:06;;;;;;;12.63;11.05;;;;;;;-150.07;42.82;63500.59;5003241;28;20476;-79
2021/06/01 08:00:33;;;;;;;16.63;11.80;;;;;;;-150.07;43.00;63525.72;5011452;28;20025;-78
2021/06/01 08:03:00;;;;;;;18.35;13.02;;;;;;;-150.07;43.25;63301.69;5012778;28;20397;-80
2021/06/01 08:05:26;;;;;;;19.15;11.50;;;;;;;-150.07;42.81;63517.34;5013325;28;20466;-81
2021/06/01 08:07:54;;;;;;;15.80;11.48;;;;;;;-150.07;42.47;63613.66;5015215;28;20030;-79
2021/06/01 08:10:21;;;;;;;15.15;12.07;;;;;;;-150.07;42.15;63647.13;5013607;28;20490;-79
2021/06/01 08:12:50;;;;;;;20.27;12.98;;;;;;;-150.07;42.13;64210.38;5015073;28;20080;-80
2021/06/01 08:15:20;;;;;;;19.90;11.18;;;;;;;-150.07;42.79;63655.50;5014183;28;20030;-78
2021/06/01 08:17:50;;;;;;;19.23;12.50;;;;;;;-150.07;42.51;63718.31;5012141;28;20038;-79
2021/06/01 08:20:33;;;;;;;19.98;10.25;;;;;;;-150.07;42.38;63511.06;5011111;28;20395;-80
2021/06/01 08:23:00;;;;;;;13.35;10.25;;;;;;;-150.07;42.43;63783.22;5010746;28;20042;-79
2021/06/01 08:25:27;;;;;;;15.75;11.93;;;;;;;-150.07;42.10;63412.66;5011199;28;20049;-80
2021/06/01 08:27:56;;;;;;;21.02;11.90;;;;;;;-150.07;42.19;64107.78;5011983;28;20018;-80
2021/06/01 08:30:23;;;;;;;15.30;11.98;;;;;;;-150.07;42.72;63536.19;5010966;28;20402;-79
2021/06/01 08:32:50;;;;;;;13.73;11.95;;;;;;;-150.07;43.48;63333.09;5017063;28;20085;-80
2021/06/01 08:35:17;;;;;;;14.25;10.57;;;;;;;-150.07;42.99;63450.34;5024734;28;20021;-82
2021/06/01 08:37:44;;;;;;;15.95;9.80;;;;;;;-150.07;42.85;63358.22;5011752;28;20026;-79
2021/06/01 08:40:11;;;;;;;22.45;10.10;;;;;;;-150.07;43.43;64338.13;5010413;28;20116;-80
2021/06/01 08:42:39;;;;;;;14.13;9.88;;;;;;;-150.07;43.67;63433.59;5009386;28;20080;-79
2021/06/01 08:45:09;;;;;;;22.38;11.50;;;;;;;-150.07;43.64;63473.38;5010775;28;20064;-81
2021/06/01 08:47:37;;;;;;;12.38;10.95;;;;;;;-150.07;43.33;63383.34;5013302;28;20029;-77
2021/06/01 08:50:07;;;;;;;13.75;9.85;;;;;;;-150.07;43.30;63295.41;5013622;28;20030;-83
2021/06/01 08:52:36;;;;;;;12.07;10.52;;;;;;;-150.07;43.69;63228.44;5013893;28;20026;-78
2021/06/01 08:55:05;;;;;;;12.93;8.85;;;;;;;-150.07;44.41;63441.97;5010371;28;20031;-84
2021/06/01 08:57:35;;;;;;;12.85;9.43;;;;;;;-150.07;44.55;63492.22;5012153;28;20491;-77
2021/06/01 09:00:03;;;;;;;16.00;10.65;;;;;;;-150.07;44.32;63479.66;5001467;28;20080;-79
2021/06/01 09:02:30;;;;;;;12.80;10.13;;;;;;;-150.07;44.00;63324.72;5011359;28;20029;-79
2021/06/01 09:05:02;;;;;;;15.63;9.85;;;;;;;-150.07;43.66;63222.16;5011037;28;20064;-78
2021/06/01 09:19:54;;;;;;;12.68;10.10;;;;;;;-150.07;44.04;63469.19;5011000;28;20033;-82
2021/06/01 09:21:17;;;;;;;13.88;10.13;;;;;;;-150.07;44.57;63261.94;5012135;28;20434;-82
2021/06/01 09:23:59;;;;;;;18.70;10.93;;;;;;;-150.07;44.93;63312.16;5011787;28;20034;-83
2021/06/01 09:26:44;;;;;;;16.33;12.07;;;;;;;-150.07;45.38;63391.72;5012581;28;20084;-82
2021/06/01 09:29:11;;;;;;;15.55;11.38;;;;;;;-150.07;45.47;63090.25;5013854;28;20038;-84
2021/06/01 09:31:39;;;;;;;14.07;11.65;;;;;;;-150.07;45.73;62966.75;5012652;28;20080;-84
2021/06/01 09:34:08;;;;;;;14.68;10.93;;;;;;;-150.07;46.11;64076.38;5017235;28;20037;-84
2021/06/01 09:36:35;;;;;;;14.27;10.67;;;;;;;-150.07;45.87;63274.47;5024118;28;20067;-84
2021/06/01 09:39:04;;;;;;;12.70;11.40;;;;;;;-150.07;46.33;63282.84;5023613;28;20050;-83
2021/06/01 09:41:32;;;;;;;23.70;13.88;;;;;;;-150.07;46.29;63324.72;5022957;28;20164;-86
2021/06/01 09:43:59;;;;;;;15.25;11.07;;;;;;;-150.07;46.28;63370.78;5025123;28;20458;-84
2021/06/01 09:46:34;;;;;;;14.98;11.23;;;;;;;-150.07;46.55;63998.91;5020875;28;20129;-85
2021/06/01 09:49:17;;;;;;;17.02;12.27;;;;;;;-150.07;47.00;63362.41;5022546;28;20034;-82
2021/06/01 09:51:48;;;;;;;13.18;11.60;;;;;;;-150.07;47.21;63351.94;5018925;28;20065;-86
2021/06/01 09:54:37;;;;;;;16.52;10.60;;;;;;;-150.07;47.00;63356.13;5017562;28;20029;-84
2021/06/01 09:57:26;;;;;;;17.08;13.32;;;;;;;-150.07;47.29;63310.06;5013404;28;20391;-81
2021/06/01 10:00:16;;;;;;;21.92;11.70;;;;;;;-150.07;47.85;63182.38;5010574;28;20767;-85
2021/06/01 10:02:47;;;;;;;15.43;10.95;;;;;;;-150.07;47.60;63479.66;5012944;28;20045;-94
2021/06/01 10:05:20;;;;;;;14.13;11.85;;;;;;;-150.07;47.96;63046.31;4998427;28;20030;-87
2021/06/01 10:07:53;;;;;;;15.35;12.00;;;;;;;-150.07;47.98;63104.91;5003503;28;20022;-84
2021/06/01 10:10:23;;;;;;;18.65;15.85;;;;;;;-150.07;48.27;63119.56;5018944;28;20030;-82
2021/06/01 10:12:56;;;;;;;18.33;16.42;;;;;;;-150.07;48.62;62993.97;5011246;28;20364;-80
2021/06/01 10:15:25;;;;;;;16.63;14.30;;;;;;;-150.07;48.60;63276.56;5009096;28;20105;-81
2021/06/01 10:17:53;;;;;;;16.15;13.00;;;;;;;-150.07;48.62;63102.81;5010282;28;20479;-80
2021/06/01 10:20:23;;;;;;;21.90;14.48;;;;;;;-150.07;48.25;63132.13;5004945;28;20188;-77
2021/06/01 10:22:50;;;;;;;18.02;14.05;;;;;;;-150.07;48.05;63130.03;5012214;28;20017;-77
2021/06/01 10:25:19;;;;;;;16.35;14.05;;;;;;;-150.07;47.95;63092.34;5022006;28;20030;-79
2021/06/01 10:27:49;;;;;;;18.50;13.13;;;;;;;-150.07;48.05;63063.06;5028071;28;20146;-78
2021/06/01 10:30:15;;;;;;;;;;;;;;;-150.07;48.33;63073.50;5030102;28;20049;-78
2021/06/01 10:32:55;;;;;;;18.20;15.10;;;;;;;-150.07;48.24;63044.22;5028918;28;19918;-79
2021/06/01 10:35:24;;;;;;;23.08;17.50;;;;;;;-150.07;48.18;63814.63;5034178;28;20033;-78
2021/06/01 10:49:59;;;;;;;18.05;13.52;;;;;;;-150.07;48.21;63458.72;5002657;28;20048;-78
2021/06/01 10:52:11;;;;;;;23.33;14.68;;;;;;;-150.07;48.55;62968.84;5000851;28;20038;-78
2021/06/01 10:54:48;;;;;;;18.48;13.93;;;;;;;-150.07;48.66;62985.59;5001826;28;20379;-77
2021/06/01 10:57:19;;;;;;;21.80;14.95;;;;;;;-150.07;48.33;63014.91;4993084;28;20045;-80
2021/06/01 11:01:49;;;;;;;19.30;14.35;;;;;;;-150.07;48.56;63031.66;5010599;28;20095;-78
2021/06/01 11:03:04;;;;;;;16.45;13.18;;;;;;;-150.07;48.55;63123.75;5013487;28;20034;-84
2021/06/01 11:05:40;;;;;;;19.33;12.05;;;;;;;-150.07;48.38;63040.03;5011454;28;20033;-76
2021/06/01 11:08:15;;;;;;;13.07;11.15;;;;;;;-150.07;47.63;63203.31;4995601;28;20026;-78
2021/06/01 11:10:47;;;;;;;13.07;10.98;;;;;;;-150.07;47.60;63065.16;5013559;28;20033;-78
2021/06/01 11:13:23;;;;;;;12.73;10.75;;;;;;;-150.07;48.08;63035.84;5015790;28;20068;-77
2021/06/01 11:15:58;;;;;;;17.73;11.95;;;;;;;-150.07;48.08;62860.00;5016100;28;20540;-77
2021/06/01 11:18:37;;;;;;;18.20;12.32;;;;;;;-150.07;48.37;62987.69;5014178;28;20497;-78
2021/06/01 11:35:14;;;;;;;27.67;21.70;;;;;;;-150.07;49.47;62857.91;5014134;28;20030;-85
2021/06/01 11:37:58;;;;;;;34.22;24.38;;;;;;;-150.07;49.52;62964.66;5007383;28;20112;-80
2021/06/01 11:43:03;;;;;;;25.45;21.13;;;;;;;-150.07;49.70;62851.63;5005043;28;20034;-79
2021/06/01 11:51:23;;;;;;;28.88;21.30;;;;;;;-150.07;50.10;62918.59;5011384;28;20025;-80
2021/06/01 11:54:03;;;;;;;25.42;21.08;;;;;;;-150.07;50.05;63718.31;5000949;28;20057;-80
2021/06/01 12:19:09;;;;;;;31.63;24.40;;;;;;;-150.07;50.98;62914.41;5009561;28;20551;-81
2021/06/01 12:21:40;;;;;;;28.95;25.05;;;;;;;-150.07;51.06;62926.97;5011341;28;20038;-81
2021/06/01 12:24:15;;;;;;;34.08;27.20;;;;;;;-150.07;50.79;62914.41;5012831;28;20038;-82
2021/06/01 12:32:10;;;;;;;33.88;24.27;;;;;;;-150.07;50.89;62918.59;5014108;28;20119;-80
2021/06/01 12:43:23;;;;;;;38.42;27.67;;;;;;;-150.07;51.01;62700.91;5011779;28;19967;-79
2021/06/01 12:46:02;;;;;;;41.30;27.65;;;;;;;-150.07;51.22;62931.16;5012358;28;20026;-79